sensor_id;sensor_type;location;lat;lon;timestamp;P1;durP1;ratioP1;P2;durP2;ratioP2
37065;SDS011;22981;43.080;25.550;2022-10-26T06:24:23;11.68;;;7.60;;
37065;SDS011;22981;43.080;25.550;2022-10-26T10:55:27;1.60;;;1.25;;
37065;SDS011;22981;43.080;25.550;2022-10-26T11:06:16;12.80;;;9.75;;
37065;SDS011;22981;43.080;25.550;2022-10-26T11:08:48;4.97;;;3.47;;
37065;SDS011;22981;43.080;25.550;2022-10-26T11:16:32;6.90;;;2.10;;
37065;SDS011;22981;43.080;25.550;2022-10-26T11:19:00;3.50;;;1.47;;
37065;SDS011;22981;43.080;25.550;2022-10-26T11:21:32;2.45;;;1.52;;
37065;SDS011;22981;43.080;25.550;2022-10-26T11:24:17;2.37;;;1.22;;
37065;SDS011;22981;43.080;25.550;2022-10-26T11:32:02;27.62;;;22.77;;
37065;SDS011;22981;43.080;25.550;2022-10-26T11:37:21;35.17;;;24.00;;
37065;SDS011;22981;43.080;25.550;2022-10-26T11:40:04;21.50;;;13.60;;
37065;SDS011;22981;43.080;25.550;2022-10-26T11:42:34;17.20;;;12.68;;
37065;SDS011;22981;43.080;25.550;2022-10-26T11:45:10;6.67;;;4.58;;
37065;SDS011;22981;43.080;25.550;2022-10-26T11:50:20;1.72;;;1.30;;
37065;SDS011;22981;43.080;25.550;2022-10-26T11:52:57;6.50;;;2.40;;
37065;SDS011;22981;43.080;25.550;2022-10-26T11:55:24;2.80;;;1.20;;
37065;SDS011;22981;43.080;25.550;2022-10-26T11:57:52;4.12;;;1.42;;
37065;SDS011;22981;43.080;25.550;2022-10-26T12:00:21;2.85;;;1.30;;
37065;SDS011;22981;43.080;25.550;2022-10-26T12:02:49;5.05;;;1.32;;
37065;SDS011;22981;43.080;25.550;2022-10-26T12:08:03;6.00;;;2.05;;
37065;SDS011;22981;43.080;25.550;2022-10-26T12:10:42;3.40;;;2.60;;
37065;SDS011;22981;43.080;25.550;2022-10-26T12:13:20;2.47;;;1.80;;
37065;SDS011;22981;43.080;25.550;2022-10-26T12:18:32;7.12;;;5.30;;
37065;SDS011;22981;43.080;25.550;2022-10-26T12:21:06;5.22;;;4.70;;
37065;SDS011;22981;43.080;25.550;2022-10-26T12:23:52;2.87;;;2.22;;
37065;SDS011;22981;43.080;25.550;2022-10-26T12:34:23;5.37;;;2.22;;
37065;SDS011;22981;43.080;25.550;2022-10-26T12:39:32;6.20;;;2.20;;
37065;SDS011;22981;43.080;25.550;2022-10-26T12:44:35;3.55;;;1.30;;
37065;SDS011;22981;43.080;25.550;2022-10-26T12:50:00;1.87;;;1.20;;
37065;SDS011;22981;43.080;25.550;2022-10-26T12:57:55;3.40;;;1.55;;
37065;SDS011;22981;43.080;25.550;2022-10-26T13:00:25;4.58;;;1.60;;
37065;SDS011;22981;43.080;25.550;2022-10-26T13:02:57;5.45;;;2.10;;
37065;SDS011;22981;43.080;25.550;2022-10-26T13:08:37;15.53;;;7.50;;
37065;SDS011;22981;43.080;25.550;2022-10-26T13:11:12;5.25;;;2.50;;
37065;SDS011;22981;43.080;25.550;2022-10-26T13:13:50;4.45;;;1.80;;
37065;SDS011;22981;43.080;25.550;2022-10-26T13:16:25;7.70;;;2.37;;
37065;SDS011;22981;43.080;25.550;2022-10-26T13:18:54;3.15;;;1.82;;
37065;SDS011;22981;43.080;25.550;2022-10-26T13:21:22;4.10;;;1.55;;
37065;SDS011;22981;43.080;25.550;2022-10-26T13:26:29;1.85;;;1.47;;
37065;SDS011;22981;43.080;25.550;2022-10-26T13:28:59;4.37;;;1.50;;
37065;SDS011;22981;43.080;25.550;2022-10-26T13:34:14;3.00;;;1.67;;
37065;SDS011;22981;43.080;25.550;2022-10-26T13:39:35;5.40;;;1.55;;
37065;SDS011;22981;43.080;25.550;2022-10-26T13:42:06;3.05;;;1.65;;
37065;SDS011;22981;43.080;25.550;2022-10-26T13:47:24;2.30;;;1.45;;
37065;SDS011;22981;43.080;25.550;2022-10-26T13:50:03;4.58;;;1.60;;
37065;SDS011;22981;43.080;25.550;2022-10-26T13:52:29;4.75;;;1.60;;
37065;SDS011;22981;43.080;25.550;2022-10-26T13:55:15;6.37;;;1.70;;
37065;SDS011;22981;43.080;25.550;2022-10-26T13:57:45;5.42;;;1.42;;
37065;SDS011;22981;43.080;25.550;2022-10-26T14:00:20;5.83;;;1.98;;
37065;SDS011;22981;43.080;25.550;2022-10-26T14:02:48;6.60;;;1.80;;
37065;SDS011;22981;43.080;25.550;2022-10-26T14:05:16;6.10;;;1.80;;
37065;SDS011;22981;43.080;25.550;2022-10-26T14:07:46;2.10;;;1.40;;
37065;SDS011;22981;43.080;25.550;2022-10-26T14:12:57;4.03;;;1.57;;
37065;SDS011;22981;43.080;25.550;2022-10-26T14:15:27;3.45;;;1.82;;
37065;SDS011;22981;43.080;25.550;2022-10-26T14:17:57;4.05;;;1.98;;
37065;SDS011;22981;43.080;25.550;2022-10-26T14:20:27;5.28;;;2.05;;
37065;SDS011;22981;43.080;25.550;2022-10-26T14:22:56;4.10;;;2.20;;
37065;SDS011;22981;43.080;25.550;2022-10-26T14:25:25;5.12;;;2.10;;
37065;SDS011;22981;43.080;25.550;2022-10-26T14:27:56;6.05;;;2.02;;
37065;SDS011;22981;43.080;25.550;2022-10-26T14:30:25;10.32;;;2.65;;
37065;SDS011;22981;43.080;25.550;2022-10-26T14:32:56;4.28;;;1.72;;
37065;SDS011;22981;43.080;25.550;2022-10-26T14:35:26;5.92;;;1.98;;
37065;SDS011;22981;43.080;25.550;2022-10-26T14:40:33;9.15;;;2.65;;
37065;SDS011;22981;43.080;25.550;2022-10-26T14:43:01;7.60;;;2.40;;
37065;SDS011;22981;43.080;25.550;2022-10-26T14:45:34;7.97;;;2.42;;
37065;SDS011;22981;43.080;25.550;2022-10-26T14:48:05;3.55;;;2.67;;
37065;SDS011;22981;43.080;25.550;2022-10-26T14:50:35;5.87;;;2.87;;
37065;SDS011;22981;43.080;25.550;2022-10-26T14:53:15;5.42;;;2.50;;
37065;SDS011;22981;43.080;25.550;2022-10-26T14:55:48;4.05;;;2.27;;
37065;SDS011;22981;43.080;25.550;2022-10-26T14:58:19;7.20;;;2.65;;
37065;SDS011;22981;43.080;25.550;2022-10-26T15:01:12;4.85;;;2.58;;
37065;SDS011;22981;43.080;25.550;2022-10-26T15:03:34;7.37;;;2.80;;
37065;SDS011;22981;43.080;25.550;2022-10-26T15:08:53;4.35;;;2.35;;
37065;SDS011;22981;43.080;25.550;2022-10-26T15:13:49;7.83;;;3.30;;
37065;SDS011;22981;43.080;25.550;2022-10-26T15:16:19;5.97;;;3.45;;
37065;SDS011;22981;43.080;25.550;2022-10-26T15:18:53;7.08;;;3.02;;
37065;SDS011;22981;43.080;25.550;2022-10-26T15:21:26;10.43;;;3.20;;
37065;SDS011;22981;43.080;25.550;2022-10-26T15:23:58;7.85;;;3.20;;
37065;SDS011;22981;43.080;25.550;2022-10-26T15:26:26;14.07;;;3.05;;
37065;SDS011;22981;43.080;25.550;2022-10-26T15:28:54;6.55;;;2.70;;
37065;SDS011;22981;43.080;25.550;2022-10-26T15:31:26;5.50;;;2.80;;
37065;SDS011;22981;43.080;25.550;2022-10-26T15:36:30;5.87;;;2.33;;
37065;SDS011;22981;43.080;25.550;2022-10-26T15:39:00;5.60;;;2.55;;
37065;SDS011;22981;43.080;25.550;2022-10-26T15:41:28;7.35;;;2.20;;
37065;SDS011;22981;43.080;25.550;2022-10-26T15:44:02;7.70;;;2.67;;
37065;SDS011;22981;43.080;25.550;2022-10-26T15:46:38;5.10;;;3.40;;
37065;SDS011;22981;43.080;25.550;2022-10-26T15:49:05;7.78;;;4.47;;
37065;SDS011;22981;43.080;25.550;2022-10-26T15:51:33;7.17;;;5.03;;
37065;SDS011;22981;43.080;25.550;2022-10-26T15:54:03;8.05;;;4.53;;
37065;SDS011;22981;43.080;25.550;2022-10-26T15:56:31;13.43;;;5.08;;
37065;SDS011;22981;43.080;25.550;2022-10-26T15:58:59;12.65;;;4.80;;
37065;SDS011;22981;43.080;25.550;2022-10-26T16:01:27;19.48;;;6.47;;
37065;SDS011;22981;43.080;25.550;2022-10-26T16:03:55;10.82;;;5.40;;
37065;SDS011;22981;43.080;25.550;2022-10-26T16:06:30;15.08;;;5.40;;
37065;SDS011;22981;43.080;25.550;2022-10-26T16:08:59;12.60;;;5.60;;
37065;SDS011;22981;43.080;25.550;2022-10-26T16:11:30;15.58;;;7.65;;
37065;SDS011;22981;43.080;25.550;2022-10-26T16:13:59;15.63;;;11.08;;
37065;SDS011;22981;43.080;25.550;2022-10-26T16:16:27;20.68;;;12.03;;
37065;SDS011;22981;43.080;25.550;2022-10-26T16:18:59;17.45;;;9.85;;
37065;SDS011;22981;43.080;25.550;2022-10-26T16:21:27;9.55;;;6.05;;
37065;SDS011;22981;43.080;25.550;2022-10-26T16:23:55;7.62;;;5.50;;
37065;SDS011;22981;43.080;25.550;2022-10-26T16:26:22;6.60;;;4.62;;
37065;SDS011;22981;43.080;25.550;2022-10-26T16:28:50;7.78;;;4.47;;
37065;SDS011;22981;43.080;25.550;2022-10-26T16:31:20;7.10;;;4.33;;
37065;SDS011;22981;43.080;25.550;2022-10-26T16:33:57;7.72;;;4.95;;
37065;SDS011;22981;43.080;25.550;2022-10-26T16:36:39;8.30;;;3.55;;
37065;SDS011;22981;43.080;25.550;2022-10-26T16:39:11;11.05;;;3.72;;
37065;SDS011;22981;43.080;25.550;2022-10-26T16:41:43;14.23;;;6.72;;
37065;SDS011;22981;43.080;25.550;2022-10-26T16:44:17;12.53;;;6.85;;
37065;SDS011;22981;43.080;25.550;2022-10-26T16:46:54;11.12;;;4.75;;
37065;SDS011;22981;43.080;25.550;2022-10-26T16:49:31;6.95;;;3.58;;
37065;SDS011;22981;43.080;25.550;2022-10-26T16:52:04;6.35;;;3.67;;
37065;SDS011;22981;43.080;25.550;2022-10-26T16:57:11;8.03;;;5.78;;
